Time;durP1;ratioP1;P1;durP2;ratioP2;P2;SDS_P1;SDS_P2;PMS_P1;PMS_P2;Temp;Humidity;BMP_temperature;BMP_pressure;BME280_temperature;BME280_humidity;BME280_pressure;Samples;Min_cycle;Max_cycle;Signal;HPM_P1;HPM_P2
2021/10/22 00:01:09;;;;;;;7.25;1.45;;;;;;;7.25;73.60;99660.69;1758375;81;20996;-76
2021/10/22 00:03:35;;;;;;;4.72;1.25;;;;;;;7.30;73.51;99674.29;1758296;81;21040;-77
2021/10/22 00:06:01;;;;;;;8.93;1.37;;;;;;;7.31;73.42;99681.27;1758222;81;21536;-76
2021/10/22 00:08:27;;;;;;;5.92;0.98;;;;;;;7.33;73.36;99686.38;1758523;81;20981;-77
2021/10/22 00:10:53;;;;;;;10.05;1.87;;;;;;;7.35;73.27;99692.36;1758481;81;21778;-77
2021/10/22 00:13:19;;;;;;;7.95;1.32;;;;;;;7.37;73.14;99693.84;1758372;80;20846;-77
2021/10/22 00:15:46;;;;;;;7.22;1.55;;;;;;;7.37;73.02;99705.78;1758165;80;20984;-77
2021/10/22 00:18:12;;;;;;;4.83;1.52;;;;;;;7.36;72.91;99690.85;1758642;81;21525;-77
2021/10/22 00:20:38;;;;;;;6.55;1.92;;;;;;;7.32;72.80;99693.50;1758110;81;21484;-77
2021/10/22 00:23:04;;;;;;;6.90;1.70;;;;;;;7.31;72.71;99694.52;1758435;80;22080;-77
2021/10/22 00:25:30;;;;;;;8.65;2.20;;;;;;;7.32;72.60;99696.16;1758550;81;21494;-77
2021/10/22 00:27:56;;;;;;;7.20;2.20;;;;;;;7.30;72.50;99714.07;1758537;81;21040;-77
2021/10/22 00:30:22;;;;;;;8.30;1.52;;;;;;;7.26;72.43;99707.44;1758553;81;21443;-77
2021/10/22 00:32:48;;;;;;;7.65;1.52;;;;;;;7.25;72.31;99714.22;1758427;81;21040;-76
2021/10/22 00:35:14;;;;;;;9.53;1.95;;;;;;;7.22;72.20;99718.03;1758749;81;21352;-77
2021/10/22 00:37:40;;;;;;;8.68;1.72;;;;;;;7.16;72.12;99725.33;1757918;81;21048;-77
2021/10/22 00:40:08;;;;;;;4.70;1.27;;;;;;;7.13;72.08;99732.30;1748221;77;21374;-77
2021/10/22 00:42:34;;;;;;;7.22;1.07;;;;;;;7.09;71.99;99732.28;1778048;79;21053;-76
2021/10/22 00:45:01;;;;;;;7.20;1.45;;;;;;;7.10;71.94;99739.25;1758733;81;20993;-77
2021/10/22 00:47:27;;;;;;;7.92;1.62;;;;;;;7.10;71.90;99740.58;1710821;82;21156;-77
2021/10/22 00:49:53;;;;;;;6.45;1.72;;;;;;;7.11;71.83;99750.17;1738321;82;21511;-77
2021/10/22 00:52:24;;;;;;;9.28;1.70;;;;;;;7.13;71.80;99750.86;1738557;82;20992;-77
2021/10/22 00:54:51;;;;;;;9.00;1.52;;;;;;;7.16;71.73;99745.22;1738881;82;21035;-77
2021/10/22 00:57:17;;;;;;;11.65;1.65;;;;;;;7.19;71.67;99758.64;1738719;82;20993;-77
2021/10/22 00:59:44;;;;;;;6.00;1.90;;;;;;;7.22;71.62;99753.00;1738571;82;21188;-77
2021/10/22 01:02:10;;;;;;;10.10;1.90;;;;;;;7.23;71.55;99764.78;1711396;82;21591;-77
2021/10/22 01:04:37;;;;;;;13.93;2.30;;;;;;;7.26;71.48;99763.62;1738361;82;21441;-77
2021/10/22 01:07:05;;;;;;;7.55;1.77;;;;;;;7.26;71.42;99766.27;1738452;82;21005;-77
2021/10/22 01:09:31;;;;;;;12.05;2.45;;;;;;;7.26;71.34;99760.47;1738561;82;21500;-77
2021/10/22 01:11:57;;;;;;;7.62;1.92;;;;;;;7.29;71.27;99772.56;1738474;82;21745;-77
2021/10/22 01:14:23;;;;;;;12.30;2.77;;;;;;;7.29;71.20;99776.05;1738442;82;20988;-77
2021/10/22 01:16:49;;;;;;;6.50;2.15;;;;;;;7.32;71.10;99775.72;1738246;82;21008;-77
2021/10/22 01:19:17;;;;;;;2.90;1.35;;;;;;;7.31;71.06;99782.05;1738610;82;20976;-77
2021/10/22 01:21:46;;;;;;;6.87;1.90;;;;;;;7.31;70.96;99785.19;1738293;82;21003;-77
2021/10/22 01:24:13;;;;;;;7.22;1.75;;;;;;;7.32;70.86;99782.84;1738379;82;21603;-77
2021/10/22 01:26:39;;;;;;;5.47;1.62;;;;;;;7.32;70.79;99790.31;1738436;82;20977;-77
2021/10/22 01:29:05;;;;;;;7.12;1.60;;;;;;;7.33;70.75;99788.00;1710875;82;21024;-77
2021/10/22 01:31:31;;;;;;;4.72;1.57;;;;;;;7.33;70.72;99786.67;1738481;82;21016;-77
2021/10/22 01:33:57;;;;;;;6.53;2.20;;;;;;;7.33;70.67;99795.13;1738500;82;20984;-76
2021/10/22 01:36:23;;;;;;;10.88;2.60;;;;;;;7.33;70.66;99791.98;1738572;82;20991;-76
2021/10/22 01:38:50;;;;;;;10.88;1.95;;;;;;;7.34;70.60;99789.66;1738260;81;21000;-77
2021/10/22 01:41:17;;;;;;;12.78;2.08;;;;;;;7.33;70.58;99793.30;1731643;82;21007;-77
2021/10/22 01:43:44;;;;;;;9.88;2.30;;;;;;;7.32;70.54;99792.95;1725618;83;21084;-76
2021/10/22 01:46:11;;;;;;;7.85;1.90;;;;;;;7.29;70.46;99795.11;1729053;83;21051;-77
2021/10/22 01:48:37;;;;;;;7.83;2.05;;;;;;;7.27;70.44;99804.58;1729004;83;21162;-77
2021/10/22 01:51:04;;;;;;;7.85;1.85;;;;;;;7.24;70.41;99810.21;1695159;84;21104;-77
2021/10/22 01:53:30;;;;;;;11.05;2.85;;;;;;;7.21;70.36;99806.56;1725974;83;21055;-77
2021/10/22 01:55:56;;;;;;;7.87;2.70;;;;;;;7.19;70.31;99808.53;1725969;83;21056;-77
2021/10/22 01:58:22;;;;;;;10.50;2.77;;;;;;;7.13;70.23;99805.20;1729063;83;20992;-76
2021/10/22 02:00:49;;;;;;;11.53;3.02;;;;;;;7.10;70.16;99810.84;1729057;83;21504;-76
2021/10/22 02:03:15;;;;;;;9.80;3.37;;;;;;;7.07;70.12;99819.13;1728819;83;21024;-77
2021/10/22 02:05:41;;;;;;;10.35;2.55;;;;;;;7.01;70.11;99807.81;1728914;82;21000;-77
2021/10/22 02:08:08;;;;;;;9.38;2.22;;;;;;;7.01;70.09;99827.70;1728851;82;21105;-76
2021/10/22 02:10:34;;;;;;;10.43;2.55;;;;;;;7.01;70.05;99825.87;1729219;82;21005;-77
2021/10/22 02:13:00;;;;;;;12.55;2.52;;;;;;;7.06;70.03;99827.22;1728912;83;21848;-77
2021/10/22 02:15:26;;;;;;;11.73;1.70;;;;;;;7.07;70.00;99823.09;1728970;83;20941;-77
2021/10/22 02:17:53;;;;;;;9.05;2.30;;;;;;;7.09;69.99;99829.06;1695248;84;21032;-77
2021/10/22 02:20:19;;;;;;;8.53;1.98;;;;;;;7.11;70.00;99826.25;1726141;83;22079;-77
2021/10/22 02:22:45;;;;;;;10.23;1.50;;;;;;;7.12;70.01;99820.77;1725975;83;20993;-77
2021/10/22 02:25:11;;;;;;;11.73;1.92;;;;;;;7.10;69.95;99825.42;1728714;83;21275;-77
2021/10/22 02:27:37;;;;;;;13.43;2.02;;;;;;;7.09;69.95;99821.59;1728876;82;20993;-77
2021/10/22 02:30:04;;;;;;;7.47;1.70;;;;;;;7.07;69.95;99827.08;1696721;84;21491;-76
2021/10/22 02:32:31;;;;;;;6.85;1.92;;;;;;;7.08;69.95;99828.71;1725999;83;21091;-77
2021/10/22 02:34:57;;;;;;;6.75;1.75;;;;;;;7.07;69.91;99833.70;1726013;83;21016;-77
2021/10/22 02:37:23;;;;;;;8.30;2.20;;;;;;;7.08;69.92;99833.18;1726070;83;21035;-77
2021/10/22 02:39:49;;;;;;;8.23;1.60;;;;;;;7.07;69.91;99824.42;1725999;83;21460;-76
2021/10/22 02:42:15;;;;;;;10.53;2.50;;;;;;;7.07;69.90;99835.03;1725692;83;21065;-77
2021/10/22 02:44:41;;;;;;;10.40;2.33;;;;;;;7.09;69.91;99837.50;1725976;83;21024;-77
2021/10/22 02:47:08;;;;;;;5.28;2.27;;;;;;;7.09;69.92;99834.36;1725841;83;21037;-77
2021/10/22 02:49:34;;;;;;;10.13;2.98;;;;;;;7.11;69.89;99838.19;1726132;83;21045;-77
2021/10/22 02:52:00;;;;;;;13.55;3.70;;;;;;;7.09;69.88;99843.64;1725990;83;21052;-77
2021/10/22 02:54:26;;;;;;;12.65;3.05;;;;;;;7.07;69.90;99835.03;1726198;83;21492;-77
2021/10/22 02:56:52;;;;;;;12.70;2.42;;;;;;;7.03;69.90;99843.80;1725768;83;21465;-77
2021/10/22 02:59:18;;;;;;;9.15;2.20;;;;;;;7.03;69.90;99845.12;1726108;83;21012;-77
2021/10/22 03:01:45;;;;;;;10.15;2.42;;;;;;;7.01;69.92;99847.09;1725804;83;21155;-77
2021/10/22 03:04:11;;;;;;;9.90;3.02;;;;;;;7.01;69.89;99847.58;1726055;83;21016;-77
2021/10/22 03:06:37;;;;;;;12.60;2.12;;;;;;;7.01;69.88;99849.73;1726004;83;21398;-77
2021/10/22 03:09:03;;;;;;;13.35;3.20;;;;;;;7.00;69.87;99855.22;1725983;83;21048;-77
2021/10/22 03:11:29;;;;;;;14.38;2.45;;;;;;;6.99;69.87;99857.53;1726202;83;21539;-77
2021/10/22 03:13:56;;;;;;;10.68;2.60;;;;;;;6.97;69.84;99874.91;1725914;83;21135;-77
2021/10/22 03:16:22;;;;;;;9.25;1.92;;;;;;;6.97;69.85;99879.37;1725923;83;21052;-77
2021/10/22 03:18:48;;;;;;;9.98;2.12;;;;;;;6.96;69.83;99893.63;1725863;83;21072;-77
2021/10/22 03:21:16;;;;;;;15.88;2.58;;;;;;;6.98;69.82;99892.97;1726151;83;21008;-77
2021/10/22 03:23:42;;;;;;;16.70;2.67;;;;;;;6.97;69.78;99896.59;1725556;83;21027;-77
2021/10/22 03:26:08;;;;;;;10.72;2.85;;;;;;;6.97;69.75;99896.59;1725912;83;21104;-77
2021/10/22 03:28:34;;;;;;;14.50;2.98;;;;;;;6.95;69.75;99896.77;1725876;83;20960;-77
2021/10/22 03:31:00;;;;;;;11.12;2.22;;;;;;;6.95;69.74;99902.57;1725925;83;21009;-77
2021/10/22 03:33:26;;;;;;;7.87;2.12;;;;;;;6.94;69.74;99907.03;1726026;83;21453;-77
2021/10/22 03:35:52;;;;;;;13.30;3.65;;;;;;;6.93;69.74;99905.89;1725966;83;21535;-77
2021/10/22 03:38:18;;;;;;;9.93;2.85;;;;;;;6.92;69.72;99902.89;1726047;83;21796;-77
2021/10/22 03:40:44;;;;;;;12.35;2.72;;;;;;;6.88;69.71;99908.17;1725749;83;21068;-76
2021/10/22 03:43:10;;;;;;;17.40;2.92;;;;;;;6.87;69.72;99911.80;1725906;83;21011;-77
2021/10/22 03:45:36;;;;;;;8.90;2.80;;;;;;;6.86;69.73;99919.44;1726171;83;21033;-77
2021/10/22 03:48:03;;;;;;;11.80;2.55;;;;;;;6.84;69.73;99916.09;1725947;83;20905;-77
2021/10/22 03:50:29;;;;;;;13.65;3.20;;;;;;;6.82;69.73;99915.44;1726068;83;21133;-77
2021/10/22 03:52:55;;;;;;;11.85;2.25;;;;;;;6.78;69.76;99921.55;1725822;83;21149;-77
2021/10/22 03:55:21;;;;;;;11.10;2.08;;;;;;;6.74;69.75;99920.68;1725775;83;21091;-77
2021/10/22 03:57:49;;;;;;;9.90;1.60;;;;;;;6.71;69.77;99918.34;1725902;83;21520;-77
2021/10/22 04:00:15;;;;;;;11.93;2.45;;;;;;;6.65;69.80;99904.41;1726034;83;21077;-77
2021/10/22 04:02:41;;;;;;;11.80;2.17;;;;;;;6.60;69.79;99904.03;1725873;83;21481;-76
2021/10/22 04:05:08;;;;;;;12.05;1.65;;;;;;;6.49;69.83;99915.23;1725692;83;21032;-77
2021/10/22 04:07:35;;;;;;;11.25;2.47;;;;;;;6.43;69.84;99913.22;1726124;83;21369;-77
2021/10/22 04:10:06;;;;;;;14.13;2.92;;;;;;;6.37;69.89;99913.81;1725686;83;21028;-77
2021/10/22 04:12:33;;;;;;;12.33;2.15;;;;;;;6.28;69.95;99920.05;1725958;83;21063;-76
2021/10/22 04:15:00;;;;;;;13.55;2.17;;;;;;;6.24;70.00;99916.05;1725799;83;21977;-77
2021/10/22 04:17:26;;;;;;;12.65;2.37;;;;;;;6.20;70.03;99902.77;1725773;83;20997;-77
2021/10/22 04:19:52;;;;;;;7.10;2.45;;;;;;;6.17;70.09;99914.16;1726011;83;21059;-77
2021/10/22 04:22:18;;;;;;;10.03;2.67;;;;;;;6.13;70.14;99907.02;1725838;83;21500;-77
2021/10/22 04:24:44;;;;;;;15.08;3.15;;;;;;;6.11;70.20;99912.97;1726200;83;21068;-77
2021/10/22 04:27:10;;;;;;;18.20;5.37;;;;;;;6.08;70.25;99915.93;1725956;83;20993;-77
2021/10/22 04:29:36;;;;;;;13.05;2.60;;;;;;;6.04;70.30;99917.22;1725844;83;20997;-77
2021/10/22 04:32:03;;;;;;;13.15;4.97;;;;;;;5.99;70.36;99916.83;1725930;83;21001;-77
2021/10/22 04:34:29;;;;;;;13.78;3.40;;;;;;;6.02;70.42;99914.70;1726080;83;21548;-77
2021/10/22 04:37:09;;;;;;;19.07;2.72;;;;;;;5.97;70.45;99917.48;1726069;83;21080;-76
2021/10/22 04:42:07;;;;;;;14.63;3.00;;;;;;;5.92;70.56;99923.71;1725773;82;21087;-77
2021/10/22 04:44:33;;;;;;;12.68;2.60;;;;;;;5.91;70.66;99928.69;1725874;83;21051;-77
2021/10/22 04:46:59;;;;;;;15.70;2.98;;;;;;;5.89;70.69;99920.88;1725886;83;21107;-77
2021/10/22 04:49:25;;;;;;;11.60;3.27;;;;;;;5.87;70.78;99931.29;1726004;83;20929;-77
2021/10/22 04:51:52;;;;;;;17.73;2.87;;;;;;;5.86;70.85;99923.00;1725826;83;21195;-77
2021/10/22 04:54:18;;;;;;;11.78;2.35;;;;;;;5.86;70.94;99924.33;1725913;83;21036;-77
2021/10/22 04:56:44;;;;;;;10.75;2.85;;;;;;;5.84;70.99;99918.34;1726046;83;21100;-77
2021/10/22 04:59:10;;;;;;;15.80;2.45;;;;;;;5.82;71.05;99926.89;1726048;83;21075;-77
2021/10/22 05:01:35;;;;;;;8.73;2.33;;;;;;;5.79;71.10;99927.20;1726054;83;20984;-76
2021/10/22 05:04:01;;;;;;;7.33;2.27;;;;;;;5.77;71.15;99931.83;1725985;83;22374;-77
2021/10/22 05:06:27;;;;;;;14.73;2.58;;;;;;;5.74;71.21;99942.69;1725832;83;21029;-77
2021/10/22 05:08:53;;;;;;;13.13;2.22;;;;;;;5.74;71.27;99933.42;1726219;83;21031;-77
2021/10/22 05:11:20;;;;;;;8.80;2.05;;;;;;;5.69;71.32;99937.03;1726095;83;21016;-77
2021/10/22 05:13:46;;;;;;;13.03;2.37;;;;;;;5.67;71.38;99940.30;1726132;83;20981;-77
2021/10/22 05:16:12;;;;;;;12.18;2.65;;;;;;;5.65;71.45;99935.17;1726031;83;21148;-77
2021/10/22 05:18:38;;;;;;;16.48;3.20;;;;;;;5.63;71.46;99929.18;1725920;83;21521;-77
2021/10/22 05:21:04;;;;;;;21.25;4.25;;;;;;;5.61;71.53;99928.52;1726292;83;21472;-77
2021/10/22 05:23:30;;;;;;;12.13;2.95;;;;;;;5.59;71.55;99929.66;1725900;83;21060;-77
2021/10/22 05:25:56;;;;;;;13.95;2.90;;;;;;;5.58;71.62;99934.59;1725970;83;21024;-77
2021/10/22 05:28:22;;;;;;;8.70;2.27;;;;;;;5.59;71.66;99937.59;1725805;83;21152;-77
2021/10/22 05:30:48;;;;;;;14.85;2.15;;;;;;;5.57;71.71;99936.89;1726031;83;21079;-77
2021/10/22 05:33:15;;;;;;;10.60;2.27;;;;;;;5.56;71.73;99940.02;1725906;83;21560;-77
2021/10/22 05:35:41;;;;;;;13.40;2.62;;;;;;;5.56;71.77;99942.66;1726096;83;21107;-77
2021/10/22 05:38:07;;;;;;;15.13;2.75;;;;;;;5.57;71.82;99935.56;1726219;83;20878;-77
2021/10/22 05:40:35;;;;;;;12.35;2.75;;;;;;;5.58;71.85;99943.85;1725867;83;21133;-77
2021/10/22 05:43:01;;;;;;;14.47;3.00;;;;;;;5.57;71.89;99950.11;1725830;83;21039;-77
2021/10/22 05:45:27;;;;;;;8.83;2.80;;;;;;;5.56;71.90;99948.47;1725946;83;21044;-77
2021/10/22 05:47:53;;;;;;;12.20;2.60;;;;;;;5.56;71.98;99950.59;1725965;83;21075;-77
2021/10/22 05:50:19;;;;;;;12.60;4.12;;;;;;;5.57;72.00;99952.76;1726175;83;21087;-77
2021/10/22 05:52:45;;;;;;;13.28;3.58;;;;;;;5.58;72.03;99960.55;1725494;83;21540;-77
2021/10/22 05:55:11;;;;;;;18.12;3.22;;;;;;;5.60;72.06;99955.94;1726098;83;21559;-76
2021/10/22 05:57:37;;;;;;;11.30;2.50;;;;;;;5.60;72.10;99957.75;1725813;83;21009;-77
2021/10/22 06:00:05;;;;;;;14.40;2.22;;;;;;;5.59;72.14;99952.14;1726145;83;21001;-77
2021/10/22 06:02:31;;;;;;;12.70;2.80;;;;;;;5.60;72.17;99949.81;1725934;83;21012;-77
2021/10/22 06:04:57;;;;;;;15.60;2.70;;;;;;;5.60;72.18;99957.75;1726338;83;21576;-76
2021/10/22 06:07:23;;;;;;;17.77;4.58;;;;;;;5.60;72.21;99964.36;1726105;83;21505;-77
2021/10/22 06:09:49;;;;;;;23.42;7.05;;;;;;;5.62;72.23;99966.38;1726080;83;21028;-77
2021/10/22 06:12:15;;;;;;;25.48;9.13;;;;;;;5.64;72.27;99978.95;1726113;83;21095;-77
2021/10/22 06:14:41;;;;;;;20.32;7.42;;;;;;;5.64;72.27;99986.89;1725820;83;21534;-76
2021/10/22 06:17:07;;;;;;;18.55;5.60;;;;;;;5.65;72.29;99984.11;1726284;83;21091;-77
2021/10/22 06:19:38;;;;;;;13.72;3.47;;;;;;;5.64;72.33;99985.56;1725719;83;21008;-77
2021/10/22 06:24:34;;;;;;;15.65;2.95;;;;;;;5.66;72.38;99994.20;1726005;83;21004;-77
2021/10/22 06:27:01;;;;;;;13.45;3.83;;;;;;;5.66;72.41;99998.17;1725952;83;21541;-77
2021/10/22 06:29:27;;;;;;;14.30;3.40;;;;;;;5.67;72.47;100001.97;1715581;83;21804;-77
2021/10/22 06:31:53;;;;;;;14.98;3.90;;;;;;;5.70;72.50;100004.84;1723377;83;21009;-77
2021/10/22 06:34:22;;;;;;;19.07;4.28;;;;;;;5.77;72.52;100012.52;1723865;81;21084;-77
2021/10/22 06:36:47;;;;;;;12.03;2.10;;;;;;;5.91;72.51;100007.55;1694552;83;21004;-78
2021/10/22 06:39:13;;;;;;;10.53;2.00;;;;;;;6.17;72.47;100006.33;1699548;83;21067;-77
2021/10/22 06:41:39;;;;;;;11.03;2.42;;;;;;;6.42;72.49;100012.19;1720794;83;21074;-77
2021/10/22 06:44:05;;;;;;;13.80;3.17;;;;;;;6.67;72.45;100017.67;1727875;81;21035;-77
2021/10/22 06:46:31;;;;;;;16.50;3.00;;;;;;;6.77;72.43;99995.39;1725916;83;21083;-77
2021/10/22 06:48:57;;;;;;;11.85;2.80;;;;;;;6.81;72.39;100004.70;1725972;83;21042;-77
2021/10/22 06:51:24;;;;;;;19.77;5.67;;;;;;;6.85;72.36;100003.41;1726128;83;21072;-77
2021/10/22 06:53:50;;;;;;;18.65;7.53;;;;;;;6.89;72.30;99992.00;1726110;83;21246;-77
2021/10/22 06:56:16;;;;;;;13.00;5.58;;;;;;;6.92;72.22;100004.94;1726061;83;21415;-77
2021/10/22 06:58:43;;;;;;;19.98;4.65;;;;;;;7.06;72.15;100005.69;1722791;81;21047;-77
2021/10/22 07:01:09;;;;;;;17.57;3.65;;;;;;;7.15;72.07;100014.50;1726738;83;21066;-77
2021/10/22 07:03:43;;;;;;;15.18;4.60;;;;;;;7.18;71.98;100003.61;1727888;82;21063;-77
2021/10/22 07:08:53;;;;;;;10.05;3.45;;;;;;;6.84;71.86;100022.11;1726304;83;21026;-77
2021/10/22 07:11:20;;;;;;;15.53;3.08;;;;;;;6.68;71.86;100027.30;1686084;83;21479;-77
2021/10/22 07:13:57;;;;;;;14.73;3.67;;;;;;;6.61;71.83;100026.25;1723606;83;21047;-77
2021/10/22 07:16:27;;;;;;;18.73;4.05;;;;;;;6.51;71.80;100035.09;1717306;83;21027;-77
2021/10/22 07:18:53;;;;;;;13.60;2.77;;;;;;;6.45;71.78;100040.17;1721708;82;21149;-77
2021/10/22 07:21:19;;;;;;;15.68;3.95;;;;;;;6.46;71.79;100032.09;1722382;81;21095;-77
2021/10/22 07:23:47;;;;;;;11.73;3.27;;;;;;;6.52;71.76;100034.61;1664840;84;21047;-77
2021/10/22 07:26:14;;;;;;;16.25;3.77;;;;;;;6.47;71.76;100041.68;1724899;83;21059;-77
2021/10/22 07:28:40;;;;;;;21.60;6.95;;;;;;;6.51;71.75;100028.96;1693910;83;21090;-77
2021/10/22 07:31:10;;;;;;;17.32;5.85;;;;;;;6.57;71.75;100033.67;1724987;83;21126;-77
2021/10/22 07:33:35;;;;;;;13.90;2.80;;;;;;;6.73;71.76;100032.95;1726568;81;21556;-77
2021/10/22 07:36:01;;;;;;;12.18;3.47;;;;;;;6.88;71.72;100030.92;1726103;82;21091;-77
2021/10/22 07:38:27;;;;;;;13.48;3.05;;;;;;;6.95;71.65;100035.94;1704362;83;21016;-78
2021/10/22 07:40:53;;;;;;;10.78;2.45;;;;;;;7.03;71.63;100041.30;1705076;83;21002;-77
2021/10/22 07:43:19;;;;;;;14.50;4.17;;;;;;;7.08;71.55;100039.98;1704522;83;21240;-78
2021/10/22 07:45:45;;;;;;;17.90;5.15;;;;;;;7.11;71.55;100036.52;1703252;83;21043;-77
2021/10/22 07:48:12;;;;;;;21.30;5.78;;;;;;;7.18;71.52;100041.53;1704977;83;21110;-78
2021/10/22 07:50:38;;;;;;;18.48;4.25;;;;;;;7.26;71.46;100032.80;1724037;83;21078;-77
2021/10/22 07:53:05;;;;;;;11.80;3.10;;;;;;;7.27;71.35;100036.63;1699998;83;21031;-77
2021/10/22 07:55:34;;;;;;;14.38;4.22;;;;;;;7.32;71.28;100041.44;1698181;84;21567;-77
2021/10/22 07:58:00;;;;;;;15.63;4.08;;;;;;;7.41;71.18;100030.73;1727252;82;21023;-77
2021/10/22 08:00:26;;;;;;;13.70;4.55;;;;;;;7.54;71.13;100031.61;1687341;84;21062;-77
2021/10/22 08:02:52;;;;;;;16.02;4.60;;;;;;;7.67;71.07;100040.47;1726082;83;21508;-77
2021/10/22 08:05:21;;;;;;;14.33;3.33;;;;;;;7.82;70.98;100034.86;1709701;83;21056;-77
2021/10/22 08:07:48;;;;;;;15.28;3.83;;;;;;;7.98;70.88;100048.20;1701386;83;26636;-78
2021/10/22 08:10:14;;;;;;;12.65;3.85;;;;;;;8.21;70.81;100030.65;1691538;84;21077;-78
2021/10/22 08:12:40;;;;;;;16.48;3.20;;;;;;;8.31;70.62;100043.80;1697992;84;21023;-78
2021/10/22 08:15:07;;;;;;;10.65;2.90;;;;;;;8.32;70.46;100043.65;1700043;83;21027;-78
2021/10/22 08:17:33;;;;;;;14.15;3.12;;;;;;;8.37;70.31;100047.95;1727836;83;21089;-78
2021/10/22 08:20:10;;;;;;;16.27;3.08;;;;;;;8.60;70.21;100040.18;1695196;84;21094;-78
2021/10/22 08:22:36;;;;;;;15.68;2.90;;;;;;;8.80;70.04;100040.66;1725716;82;21093;-78
2021/10/22 08:25:12;;;;;;;10.95;3.58;;;;;;;8.95;69.84;100037.17;1734067;82;21555;-78
2021/10/22 08:27:44;;;;;;;13.53;2.98;;;;;;;8.98;69.58;100028.84;1695468;83;21993;-78
2021/10/22 08:30:20;;;;;;;14.58;3.47;;;;;;;8.87;69.34;100038.99;1707260;84;21042;-78
2021/10/22 08:32:50;;;;;;;10.90;2.65;;;;;;;8.70;69.15;100043.99;1732544;81;21116;-78
2021/10/22 08:35:13;;;;;;;10.20;2.85;;;;;;;8.64;69.05;100032.21;1706458;82;21090;-78
2021/10/22 08:37:39;;;;;;;12.90;2.33;;;;;;;8.54;68.88;100034.20;1706799;84;20990;-78
2021/10/22 08:40:08;;;;;;;16.70;3.80;;;;;;;8.48;68.76;100037.50;1727813;83;21475;-78
2021/10/22 08:42:34;;;;;;;12.20;3.27;;;;;;;8.50;68.72;100037.70;1728262;81;21981;-78
2021/10/22 08:45:00;;;;;;;11.03;2.80;;;;;;;8.51;68.60;100043.31;1717591;83;21781;-78
2021/10/22 08:47:27;;;;;;;16.07;3.50;;;;;;;8.48;68.46;100026.38;1717743;83;21056;-78
2021/10/22 08:50:09;;;;;;;16.37;3.37;;;;;;;8.46;68.42;100027.06;1723501;82;21060;-78
2021/10/22 08:52:35;;;;;;;12.60;3.70;;;;;;;8.48;68.36;100025.05;1697301;84;21104;-78
2021/10/22 08:55:12;;;;;;;13.32;3.05;;;;;;;8.52;68.29;100026.39;1720861;82;21024;-78
2021/10/22 08:57:42;;;;;;;13.13;3.00;;;;;;;8.52;68.17;100022.40;1713949;83;22108;-78
2021/10/22 09:00:09;;;;;;;11.05;2.62;;;;;;;8.55;68.09;100020.42;1713259;82;21040;-78
2021/10/22 09:02:35;;;;;;;13.18;3.27;;;;;;;8.57;68.02;100022.41;1690616;82;21022;-78
2021/10/22 09:05:23;;;;;;;10.18;2.67;;;;;;;8.57;67.94;100034.36;1717755;82;21044;-78
2021/10/22 09:07:51;;;;;;;13.80;3.60;;;;;;;8.59;67.85;100024.39;1717931;82;21048;-78
2021/10/22 09:10:28;;;;;;;14.18;3.70;;;;;;;8.66;67.79;100020.06;1717716;82;21761;-78
2021/10/22 09:12:57;;;;;;;13.58;3.50;;;;;;;8.74;67.75;100009.44;1714782;83;21042;-78
2021/10/22 09:15:29;;;;;;;13.68;2.35;;;;;;;8.73;67.63;100015.25;1716086;83;21413;-78
2021/10/22 09:17:57;;;;;;;7.12;2.45;;;;;;;8.77;67.57;100023.72;1713412;82;21155;-78
2021/10/22 09:20:24;;;;;;;16.15;3.95;;;;;;;8.73;67.44;100025.05;1711378;82;21774;-78
2021/10/22 09:23:00;;;;;;;10.98;2.27;;;;;;;8.77;67.38;100033.02;1713668;82;21230;-78
2021/10/22 09:25:29;;;;;;;13.62;3.00;;;;;;;8.80;67.28;100026.87;1717818;82;21035;-78
2021/10/22 09:27:58;;;;;;;11.15;3.05;;;;;;;8.83;67.10;100017.23;1711899;82;22275;-78
2021/10/22 09:30:38;;;;;;;13.10;2.83;;;;;;;8.87;67.01;100005.76;1702374;82;21078;-78
2021/10/22 09:33:14;;;;;;;16.30;4.12;;;;;;;8.94;66.92;100018.71;1706645;82;21688;-78
2021/10/22 09:35:50;;;;;;;8.80;2.67;;;;;;;9.08;66.90;100020.67;1705734;82;21569;-77
2021/10/22 09:38:28;;;;;;;17.95;5.75;;;;;;;9.11;66.73;100023.03;1718125;82;21030;-78
2021/10/22 09:41:04;;;;;;;19.05;3.95;;;;;;;9.08;66.62;100022.01;1712174;82;21602;-78
2021/10/22 09:43:38;;;;;;;15.40;2.95;;;;;;;9.12;66.55;100023.33;1707082;83;20998;-78
2021/10/22 09:46:14;;;;;;;13.60;3.60;;;;;;;9.13;66.50;100009.05;1703714;82;21511;-78
2021/10/22 09:48:43;;;;;;;12.45;3.00;;;;;;;9.13;66.46;100007.71;1700715;82;21501;-78
2021/10/22 09:51:28;;;;;;;9.60;3.40;;;;;;;9.07;66.34;100011.06;1703578;82;21071;-78
2021/10/22 09:54:11;;;;;;;14.95;4.90;;;;;;;8.98;66.26;99997.43;1700972;82;21043;-78
2021/10/22 09:56:38;;;;;;;16.25;3.85;;;;;;;8.95;66.20;100003.09;1708105;82;20979;-78
2021/10/22 09:59:09;;;;;;;17.85;3.80;;;;;;;8.93;66.11;100002.45;1707639;82;21082;-78
2021/10/22 10:01:42;;;;;;;15.35;3.17;;;;;;;8.96;66.04;100002.94;1693965;82;21267;-80
2021/10/22 10:04:12;;;;;;;13.22;2.47;;;;;;;9.19;65.99;99995.05;1697132;82;21047;-80
2021/10/22 10:06:39;;;;;;;16.05;3.55;;;;;;;9.48;65.78;99986.47;1694571;83;21562;-80
2021/10/22 10:09:08;;;;;;;11.80;2.58;;;;;;;9.69;65.51;99987.20;1707456;82;21051;-80
2021/10/22 10:11:38;;;;;;;15.15;3.15;;;;;;;9.78;65.31;99971.00;1700919;84;21024;-80
2021/10/22 10:14:05;;;;;;;15.15;3.00;;;;;;;9.88;65.14;99966.80;1701153;82;21191;-80
2021/10/22 10:16:32;;;;;;;13.95;4.12;;;;;;;10.01;64.98;99977.70;1690762;84;21588;-80
2021/10/22 10:19:12;;;;;;;15.08;3.83;;;;;;;10.05;64.75;99977.67;1697556;84;21036;-81
2021/10/22 10:21:49;;;;;;;14.13;2.80;;;;;;;10.19;64.58;99972.95;1687622;83;21028;-80
2021/10/22 10:24:18;;;;;;;12.18;4.37;;;;;;;10.41;64.43;99970.75;1692784;83;21578;-80
2021/10/22 10:26:44;;;;;;;14.60;3.70;;;;;;;10.36;64.17;99968.31;1697469;82;21509;-80
2021/10/22 10:29:13;;;;;;;10.28;3.40;;;;;;;10.22;63.73;99969.92;1721562;83;21047;-80
2021/10/22 10:31:46;;;;;;;14.30;2.30;;;;;;;10.05;63.39;99967.02;1698760;83;21035;-80
2021/10/22 10:34:42;;;;;;;12.30;2.58;;;;;;;9.94;63.05;99963.42;1693732;83;21040;-81
2021/10/22 10:37:36;;;;;;;14.58;3.85;;;;;;;9.94;62.88;99959.43;1696622;82;21480;-80
2021/10/22 10:40:15;;;;;;;9.05;2.75;;;;;;;9.98;62.68;99952.75;1702133;84;21200;-81
2021/10/22 10:42:52;;;;;;;8.50;2.10;;;;;;;9.98;62.39;99966.06;1671482;84;21051;-81
2021/10/22 10:45:27;;;;;;;10.25;3.12;;;;;;;9.97;62.00;99963.91;1693023;84;21135;-81
2021/10/22 10:48:18;;;;;;;14.70;2.95;;;;;;;10.00;61.79;99957.38;1686975;84;21000;-81
2021/10/22 10:51:03;;;;;;;9.48;1.85;;;;;;;9.94;61.34;99947.45;1698186;82;21501;-81
2021/10/22 10:53:36;;;;;;;9.05;1.85;;;;;;;9.94;61.34;99947.45;1698307;82;21321;-79
2021/10/22 10:56:21;;;;;;;10.75;2.75;;;;;;;10.01;61.29;99951.05;1698805;84;21057;-80
2021/10/22 10:58:47;;;;;;;8.70;2.87;;;;;;;10.09;61.24;99943.52;1698397;83;21040;-80
2021/10/22 11:01:30;;;;;;;8.18;2.20;;;;;;;10.14;61.09;99933.14;1699758;84;20996;-81
2021/10/22 11:03:56;;;;;;;11.22;2.72;;;;;;;10.22;60.86;99928.62;1699315;84;21497;-80
2021/10/22 11:06:52;;;;;;;16.35;3.10;;;;;;;10.30;60.71;99925.89;1699905;84;21786;-80
2021/10/22 11:09:33;;;;;;;8.53;2.50;;;;;;;10.40;60.53;99934.46;1699361;84;21498;-81
2021/10/22 11:12:03;;;;;;;8.83;2.47;;;;;;;10.47;60.22;99928.73;1690630;84;21020;-80
2021/10/22 11:14:43;;;;;;;9.05;3.00;;;;;;;10.47;59.96;99924.73;1699839;83;21076;-80
2021/10/22 11:17:09;;;;;;;8.23;2.40;;;;;;;10.58;59.90;99910.64;1699742;83;21028;-81
2021/10/22 11:19:41;;;;;;;13.90;4.22;;;;;;;10.63;59.75;99908.23;1699762;83;21134;-81
2021/10/22 11:22:12;;;;;;;8.35;2.75;;;;;;;10.64;59.61;99912.56;1699633;83;21041;-80
2021/10/22 11:24:39;;;;;;;8.28;1.95;;;;;;;10.68;59.43;99904.53;1699534;84;21025;-81
2021/10/22 11:27:17;;;;;;;9.08;2.27;;;;;;;10.60;59.17;99898.77;1699556;83;21060;-80
2021/10/22 11:29:46;;;;;;;12.90;3.15;;;;;;;10.46;58.65;99896.41;1699470;84;21537;-80
2021/10/22 11:32:25;;;;;;;13.30;4.20;;;;;;;10.40;58.50;99898.48;1699789;83;21098;-80
2021/10/22 11:34:59;;;;;;;12.00;2.30;;;;;;;10.40;58.31;99897.14;1699856;84;21561;-81
2021/10/22 11:37:29;;;;;;;6.75;2.20;;;;;;;10.35;58.03;99906.17;1699713;84;21009;-81
2021/10/22 11:39:56;;;;;;;10.80;3.77;;;;;;;10.33;57.93;99888.72;1699352;84;21064;-81
2021/10/22 11:42:33;;;;;;;10.18;2.90;;;;;;;10.32;57.89;99893.21;1699621;84;21032;-81
2021/10/22 11:45:11;;;;;;;15.20;4.90;;;;;;;10.35;57.89;99890.18;1719820;82;21149;-80